Rosiori de Vede, Romania
Current Conditions -  °F | °C
As of 4:00 PM on Saturday 20 Dec 2014 (Local Time) from LRCV Reporting Station
Clear Clear  
Wind Chill: 52°   Ceiling: Unl
Heat Index: 52°   Visibility: 6mi
Dew Point: 41°   Wind: 9mph
Humidity: 67%   Direction: 260°W
Pressure: 30.03"   Gusts: NA
Location:  44.12°N, 25°E
Report Text: LRCV 201300Z 26008KT CAVOK 11/05 Q1017
Loading
Personal Weather Stations






























Interactive Weather Map New forecast layout! Learn more

10-Day Weather Forecast

Advertisements
Track Severe Weather on mobile